createdAt,value
2018-04-08T00:01:40.867Z,71.98
2018-04-08T00:04:08.355Z,71.89
2018-04-08T00:06:35.821Z,72.52
2018-04-08T00:09:03.281Z,72.96
2018-04-08T00:11:30.766Z,73.40
2018-04-08T00:13:58.226Z,73.10
2018-04-08T00:16:25.719Z,73.22
2018-04-08T00:18:53.256Z,73.54
2018-04-08T00:21:20.739Z,73.33
2018-04-08T00:23:48.206Z,73.65
2018-04-08T00:26:15.691Z,74.07
2018-04-08T00:28:43.156Z,74.59
2018-04-08T00:31:10.640Z,74.99
2018-04-08T00:33:38.106Z,74.84
2018-04-08T00:36:05.583Z,74.76
2018-04-08T00:38:33.055Z,75.25
2018-04-08T00:41:00.548Z,75.57
2018-04-08T00:43:28.019Z,75.78
2018-04-08T00:45:55.507Z,76.00
2018-04-08T00:48:22.971Z,76.37
2018-04-08T00:50:50.461Z,76.69
2018-04-08T00:53:17.994Z,76.74
2018-04-08T00:55:45.472Z,76.38
2018-04-08T00:58:12.949Z,76.34
2018-04-08T01:00:40.438Z,76.11
2018-04-08T01:03:07.910Z,76.15
2018-04-08T01:05:35.402Z,75.67
2018-04-08T01:08:02.862Z,75.69
2018-04-08T01:10:30.348Z,75.96
2018-04-08T01:12:57.833Z,76.05
2018-04-08T01:15:25.311Z,75.76
2018-04-08T01:17:52.767Z,75.44
2018-04-08T01:20:20.254Z,75.56
2018-04-08T01:22:47.710Z,75.95
2018-04-08T01:25:15.202Z,75.82
2018-04-08T01:27:42.668Z,75.65
2018-04-08T01:30:10.135Z,75.28
2018-04-08T01:32:37.615Z,75.58
2018-04-08T01:35:05.168Z,75.62
2018-04-08T01:37:32.639Z,74.69
2018-04-08T01:40:00.099Z,73.86
2018-04-08T01:42:27.579Z,74.12
2018-04-08T01:44:55.036Z,73.60
2018-04-08T01:47:22.531Z,73.35
2018-04-08T01:49:49.998Z,72.86
2018-04-08T01:52:17.491Z,73.67
2018-04-08T01:54:44.960Z,73.58
2018-04-08T01:57:12.457Z,73.28
2018-04-08T01:59:39.918Z,73.15
2018-04-08T02:02:07.406Z,73.63
2018-04-08T02:04:34.867Z,73.97
2018-04-08T02:07:02.360Z,74.17
2018-04-08T02:09:29.827Z,73.72
2018-04-08T02:11:57.307Z,73.50
2018-04-08T02:14:24.760Z,73.28
2018-04-08T02:16:52.244Z,73.84
2018-04-08T02:19:19.716Z,73.38
2018-04-08T02:21:47.194Z,73.88
2018-04-08T02:24:14.659Z,73.50
2018-04-08T02:26:42.131Z,73.48
2018-04-08T02:29:09.596Z,72.67
2018-04-08T02:31:37.091Z,72.75
2018-04-08T02:34:04.555Z,73.21
2018-04-08T02:36:32.051Z,73.17
2018-04-08T02:38:59.504Z,72.78
2018-04-08T02:41:26.988Z,73.25
2018-04-08T02:43:54.468Z,72.87
2018-04-08T02:46:21.949Z,72.94
2018-04-08T02:48:49.411Z,72.90
2018-04-08T02:51:16.929Z,71.54
2018-04-08T02:53:44.397Z,71.57
2018-04-08T02:56:11.887Z,71.04
2018-04-08T02:58:39.380Z,70.67
2018-04-08T03:01:06.840Z,70.29
2018-04-08T03:03:34.322Z,69.62
2018-04-08T03:06:01.792Z,69.50
2018-04-08T03:08:29.329Z,69.69
2018-04-08T03:10:56.800Z,69.79
2018-04-08T03:13:24.309Z,69.76
2018-04-08T03:15:51.766Z,70.54
2018-04-08T03:18:19.264Z,70.87
2018-04-08T03:20:46.733Z,70.32
2018-04-08T03:23:14.250Z,70.02
2018-04-08T03:25:41.719Z,70.47
2018-04-08T03:28:09.195Z,70.30
2018-04-08T03:30:36.659Z,70.26
2018-04-08T03:33:04.142Z,70.36
2018-04-08T03:35:31.684Z,70.50
2018-04-08T03:37:59.174Z,70.37
2018-04-08T03:40:26.847Z,70.16
2018-04-08T03:42:54.329Z,70.09
2018-04-08T03:45:21.795Z,69.73
2018-04-08T03:47:49.283Z,69.40
2018-04-08T03:50:16.745Z,69.19
2018-04-08T03:52:44.231Z,69.33
2018-04-08T03:55:11.704Z,69.32
2018-04-08T03:57:39.184Z,69.41
2018-04-08T04:00:06.643Z,69.22
2018-04-08T04:02:34.124Z,69.24
2018-04-08T04:05:01.600Z,69.57
2018-04-08T04:07:29.078Z,69.49
2018-04-08T04:09:56.541Z,69.53
2018-04-08T04:12:24.019Z,69.91
2018-04-08T04:14:51.485Z,70.66
2018-04-08T04:17:19.471Z,70.54
2018-04-08T04:19:58.652Z,70.30
2018-04-08T04:22:37.897Z,69.40
2018-04-08T04:25:20.428Z,68.81
2018-04-08T04:27:47.949Z,68.74
2018-04-08T04:30:15.411Z,68.70
2018-04-08T04:32:42.874Z,69.33
2018-04-08T04:35:10.361Z,70.17
2018-04-08T04:37:37.828Z,70.83
2018-04-08T04:40:05.315Z,70.57
2018-04-08T04:42:32.783Z,70.43
2018-04-08T04:45:00.280Z,70.95
2018-04-08T04:47:27.739Z,72.36
2018-04-08T04:49:55.219Z,72.61
2018-04-08T04:52:22.722Z,72.84
2018-04-08T04:54:50.229Z,73.12
2018-04-08T04:57:17.715Z,74.47
2018-04-08T04:59:45.193Z,75.01
2018-04-08T05:02:12.673Z,74.55
2018-04-08T05:04:40.181Z,74.43
2018-04-08T05:07:07.648Z,74.79
2018-04-08T05:09:35.128Z,75.12
2018-04-08T05:12:02.595Z,74.53
2018-04-08T05:14:30.084Z,74.29
2018-04-08T05:16:57.555Z,74.30
2018-04-08T05:19:25.042Z,74.14
2018-04-08T05:21:52.502Z,74.32
2018-04-08T05:24:19.984Z,73.79
2018-04-08T05:26:47.459Z,74.14
2018-04-08T05:29:14.945Z,73.54
2018-04-08T05:31:42.417Z,73.06
2018-04-08T05:34:10.128Z,72.16
2018-04-08T05:36:37.595Z,71.07
2018-04-08T05:39:05.088Z,71.43
2018-04-08T05:41:32.539Z,71.52
2018-04-08T05:44:00.036Z,70.69
2018-04-08T05:46:27.490Z,71.03
2018-04-08T05:48:55.017Z,71.91
2018-04-08T05:51:22.461Z,72.63
2018-04-08T05:53:49.930Z,72.72
2018-04-08T05:56:17.416Z,71.77
2018-04-08T05:58:44.879Z,70.65
2018-04-08T06:01:12.354Z,71.39
2018-04-08T06:03:39.811Z,71.42
2018-04-08T06:06:07.304Z,70.31
2018-04-08T06:08:34.761Z,69.85
2018-04-08T06:11:02.247Z,70.51
2018-04-08T06:13:29.712Z,70.65
2018-04-08T06:15:57.190Z,70.32
2018-04-08T06:18:24.643Z,67.57
2018-04-08T06:20:52.122Z,67.65
2018-04-08T06:23:19.582Z,65.82
2018-04-08T06:25:47.055Z,65.00
2018-04-08T06:28:14.513Z,66.93
2018-04-08T06:30:41.984Z,69.04
2018-04-08T06:33:09.439Z,67.86
2018-04-08T06:35:36.915Z,66.73
2018-04-08T06:38:04.385Z,66.42
2018-04-08T06:40:31.880Z,65.03
2018-04-08T06:42:59.336Z,64.05
2018-04-08T06:45:26.826Z,64.09
2018-04-08T06:47:54.289Z,61.26
2018-04-08T06:50:22.510Z,60.59
2018-04-08T06:52:49.978Z,60.31
2018-04-08T06:55:17.459Z,61.95
2018-04-08T06:57:44.924Z,62.34
2018-04-08T07:00:12.407Z,62.34
2018-04-08T07:02:39.879Z,61.44
2018-04-08T07:05:07.373Z,62.34
2018-04-08T07:07:34.835Z,60.47
2018-04-08T07:10:02.325Z,59.42
2018-04-08T07:12:29.795Z,59.89
2018-04-08T07:14:57.255Z,58.90
2018-04-08T07:17:24.735Z,58.84
2018-04-08T07:19:52.198Z,58.28
2018-04-08T07:22:19.682Z,57.89
2018-04-08T07:24:47.152Z,57.40
2018-04-08T07:27:14.644Z,57.11
2018-04-08T07:29:42.132Z,59.47
2018-04-08T07:32:09.619Z,57.45
2018-04-08T07:34:37.078Z,56.08
2018-04-08T07:37:04.591Z,56.94
2018-04-08T07:39:32.092Z,56.75
2018-04-08T07:41:59.575Z,58.43
2018-04-08T07:44:27.035Z,57.09
2018-04-08T07:46:54.528Z,56.94
2018-04-08T07:49:22.003Z,57.40
2018-04-08T07:51:49.535Z,56.70
2018-04-08T07:54:16.984Z,56.33
2018-04-08T07:56:44.481Z,56.43
2018-04-08T07:59:11.961Z,54.63
2018-04-08T08:01:39.470Z,54.50
2018-04-08T08:04:06.944Z,53.09
2018-04-08T08:06:34.460Z,52.47
2018-04-08T08:09:02.317Z,53.67
2018-04-08T08:11:29.811Z,53.81
2018-04-08T08:13:57.294Z,53.45
2018-04-08T08:16:25.036Z,51.90
2018-04-08T08:18:52.527Z,50.37
2018-04-08T08:21:20.016Z,50.42
2018-04-08T08:23:47.480Z,50.40
2018-04-08T08:26:14.983Z,50.27
2018-04-08T08:28:42.472Z,51.51
2018-04-08T08:31:10.192Z,50.71
2018-04-08T08:33:37.668Z,48.87
2018-04-08T08:36:05.186Z,49.92
2018-04-08T08:38:32.676Z,49.55
2018-04-08T08:41:00.158Z,48.93
2018-04-08T08:43:27.651Z,46.55
2018-04-08T08:45:55.116Z,48.01
2018-04-08T08:48:22.610Z,46.20
2018-04-08T08:50:50.109Z,45.64
2018-04-08T08:53:17.644Z,45.85
2018-04-08T08:55:45.122Z,45.65
2018-04-08T08:58:12.636Z,44.64
2018-04-08T09:00:40.137Z,43.45
2018-04-08T09:03:07.680Z,43.64
2018-04-08T09:05:35.215Z,45.05
2018-04-08T09:08:02.741Z,43.12
2018-04-08T09:10:30.265Z,43.16
2018-04-08T09:12:57.763Z,42.71
2018-04-08T09:15:25.259Z,42.95
2018-04-08T09:17:52.770Z,44.66
2018-04-08T09:20:25.988Z,44.07
2018-04-08T09:25:53.956Z,42.48
2018-04-08T09:28:21.447Z,43.50
2018-04-08T09:30:49.257Z,42.97
2018-04-08T09:33:16.797Z,42.86
2018-04-08T09:35:44.361Z,42.35
2018-04-08T09:38:11.888Z,44.23
2018-04-08T09:40:39.433Z,42.92
2018-04-08T09:43:07.015Z,42.50
2018-04-08T09:45:34.593Z,42.50
2018-04-08T09:48:02.171Z,43.18
2018-04-08T09:50:29.640Z,42.62
2018-04-08T09:52:57.503Z,42.06
2018-04-08T09:55:24.987Z,42.22
2018-04-08T09:57:53.366Z,41.19
2018-04-08T10:00:25.711Z,41.20
2018-04-08T10:02:57.082Z,41.18
2018-04-08T10:05:24.673Z,39.97
2018-04-08T10:07:52.186Z,39.33
2018-04-08T10:10:19.711Z,40.25
2018-04-08T10:12:47.875Z,40.38
2018-04-08T10:15:15.380Z,41.43
2018-04-08T10:17:42.900Z,41.78
2018-04-08T10:20:10.424Z,40.87
2018-04-08T10:22:37.911Z,40.47
2018-04-08T10:25:05.449Z,41.01
2018-04-08T10:27:32.981Z,41.32
2018-04-08T10:30:00.509Z,39.00
2018-04-08T10:32:28.025Z,39.07
2018-04-08T10:34:55.570Z,37.06
2018-04-08T10:37:23.064Z,36.51
2018-04-08T10:39:51.542Z,37.20
2018-04-08T10:42:19.031Z,37.01
2018-04-08T10:44:46.615Z,35.92
2018-04-08T10:47:14.120Z,35.91
2018-04-08T10:49:41.629Z,36.92
2018-04-08T10:52:09.135Z,36.27
2018-04-08T10:54:37.632Z,31.93
2018-04-08T10:57:05.122Z,33.07
2018-04-08T10:59:32.652Z,33.71
2018-04-08T11:02:00.165Z,32.91
2018-04-08T11:04:27.699Z,35.96
2018-04-08T11:06:55.229Z,34.29
2018-04-08T11:09:22.772Z,33.95
2018-04-08T11:11:51.361Z,34.04
2018-04-08T11:14:18.868Z,35.60
2018-04-08T11:16:46.343Z,34.40
2018-04-08T11:19:13.819Z,34.74
2018-04-08T11:21:41.313Z,33.96
2018-04-08T11:24:08.821Z,34.85
2018-04-08T11:26:36.384Z,35.17
2018-04-08T11:29:03.931Z,33.75
2018-04-08T11:31:38.658Z,35.54
2018-04-08T11:34:06.269Z,35.57
2018-04-08T11:36:37.925Z,34.38
2018-04-08T11:39:05.457Z,34.76
2018-04-08T11:41:33.063Z,34.32
2018-04-08T11:44:00.674Z,34.30
2018-04-08T11:46:28.239Z,36.67
2018-04-08T11:48:55.793Z,35.88
2018-04-08T11:51:23.346Z,34.60
2018-04-08T11:53:50.921Z,34.19
2018-04-08T11:56:18.459Z,35.24
2018-04-08T11:58:45.939Z,35.84
2018-04-08T12:01:13.453Z,35.91
2018-04-08T12:03:40.915Z,35.10
2018-04-08T12:06:08.964Z,34.05
2018-04-08T12:08:36.432Z,34.65
2018-04-08T12:11:03.954Z,33.17
2018-04-08T12:13:31.485Z,34.01
2018-04-08T12:15:59.024Z,35.36
2018-04-08T12:18:26.521Z,34.16
2018-04-08T12:20:54.036Z,32.97
2018-04-08T12:23:21.572Z,31.90
2018-04-08T12:25:49.131Z,32.48
2018-04-08T12:28:16.633Z,32.33
2018-04-08T12:30:46.183Z,32.43
2018-04-08T12:33:13.701Z,33.30
2018-04-08T12:35:41.301Z,32.60
2018-04-08T12:38:13.031Z,32.95
2018-04-08T12:40:40.587Z,33.22
2018-04-08T12:43:08.112Z,32.67
2018-04-08T12:45:35.687Z,32.41
2018-04-08T12:48:03.256Z,31.07
2018-04-08T12:50:30.774Z,30.19
2018-04-08T12:52:58.280Z,27.73
2018-04-08T12:55:25.771Z,28.81
2018-04-08T12:57:53.235Z,31.01
2018-04-08T13:00:20.736Z,32.37
2018-04-08T13:02:48.244Z,32.34
2018-04-08T13:05:15.788Z,32.59
2018-04-08T13:07:43.612Z,34.19
2018-04-08T13:10:11.089Z,31.93
2018-04-08T13:12:38.599Z,31.92
2018-04-08T13:15:06.055Z,31.43
2018-04-08T13:17:33.571Z,30.89
2018-04-08T13:20:01.052Z,29.01
2018-04-08T13:22:28.560Z,27.96
2018-04-08T13:24:56.024Z,26.99
2018-04-08T13:27:23.530Z,25.28
2018-04-08T13:29:51.003Z,26.25
2018-04-08T13:32:18.556Z,23.97
2018-04-08T13:34:46.025Z,23.40
2018-04-08T13:37:13.516Z,22.74
2018-04-08T13:39:41.004Z,24.60
2018-04-08T13:42:08.497Z,23.48
2018-04-08T13:44:35.984Z,24.68
2018-04-08T13:47:07.543Z,23.42
2018-04-08T13:49:35.016Z,23.71
2018-04-08T13:52:02.571Z,21.70
2018-04-08T13:54:30.379Z,21.82
2018-04-08T13:56:58.972Z,20.62
2018-04-08T13:59:26.795Z,20.00
2018-04-08T14:01:55.676Z,21.95
2018-04-08T14:04:24.034Z,21.06
2018-04-08T14:06:51.545Z,20.68
2018-04-08T14:09:19.500Z,19.41
2018-04-08T14:11:49.173Z,19.01
2018-04-08T14:14:17.593Z,18.43
2018-04-08T14:16:45.300Z,18.38
2018-04-08T14:19:13.899Z,17.93
2018-04-08T14:21:42.695Z,20.38
2018-04-08T14:24:10.636Z,20.32
2018-04-08T14:26:38.257Z,20.29
2018-04-08T14:29:06.150Z,19.32
2018-04-08T14:37:47.819Z,19.72
2018-04-08T14:40:15.336Z,20.12
2018-04-08T14:45:41.124Z,21.78
2018-04-08T14:48:08.633Z,23.01
2018-04-08T14:50:36.424Z,22.38
2018-04-08T14:53:04.008Z,20.28
2018-04-08T14:55:31.511Z,22.82
2018-04-08T14:57:59.041Z,23.57
2018-04-08T15:00:26.515Z,24.43
2018-04-08T15:02:54.019Z,23.73
2018-04-08T15:05:21.527Z,24.84
2018-04-08T15:07:49.136Z,26.07
2018-04-08T15:10:16.644Z,24.93
2018-04-08T15:12:44.225Z,27.68
2018-04-08T15:15:11.728Z,27.81
2018-04-08T15:17:39.266Z,27.36
2018-04-08T15:20:06.769Z,27.35
2018-04-08T15:22:34.444Z,26.69
2018-04-08T15:25:01.943Z,28.26
2018-04-08T15:27:29.699Z,29.07
2018-04-08T15:29:57.260Z,28.95
2018-04-08T15:32:25.603Z,29.11
2018-04-08T15:34:53.128Z,28.82
2018-04-08T15:37:20.668Z,28.44
2018-04-08T15:39:48.143Z,26.61
2018-04-08T15:42:15.641Z,24.75
2018-04-08T15:44:43.145Z,24.24
2018-04-08T15:47:10.677Z,25.09
2018-04-08T15:49:38.301Z,24.34
2018-04-08T15:52:05.887Z,23.78
2018-04-08T15:54:33.443Z,25.95
2018-04-08T15:57:01.020Z,25.19
2018-04-08T15:59:28.555Z,25.67
2018-04-08T16:01:56.052Z,26.69
2018-04-08T16:04:23.627Z,26.91
2018-04-08T16:06:51.109Z,27.87
2018-04-08T16:09:18.716Z,27.46
2018-04-08T16:11:46.311Z,26.09
2018-04-08T16:14:13.907Z,26.55
2018-04-08T16:16:41.422Z,27.11
2018-04-08T16:19:08.935Z,27.82
2018-04-08T16:21:36.472Z,27.65
2018-04-08T16:24:03.968Z,28.85
2018-04-08T16:26:31.468Z,30.30
2018-04-08T16:28:59.619Z,31.05
2018-04-08T16:31:27.135Z,31.29
2018-04-08T16:33:54.649Z,31.74
2018-04-08T16:36:22.175Z,32.38
2018-04-08T16:38:50.531Z,32.47
2018-04-08T16:41:18.026Z,33.87
2018-04-08T16:43:45.519Z,34.11
2018-04-08T16:46:13.025Z,34.93
2018-04-08T16:48:40.568Z,35.46
2018-04-08T16:51:08.058Z,35.74
2018-04-08T16:53:35.887Z,36.46
2018-04-08T16:56:03.380Z,36.79
2018-04-08T16:58:30.911Z,36.95
2018-04-08T17:00:58.416Z,36.26
2018-04-08T17:03:25.893Z,35.94
2018-04-08T17:05:53.630Z,35.54
2018-04-08T17:08:21.147Z,34.97
2018-04-08T17:10:48.673Z,35.47
2018-04-08T17:13:16.155Z,35.81
2018-04-08T17:15:43.663Z,37.60
2018-04-08T17:18:11.140Z,38.33
2018-04-08T17:20:38.636Z,38.74
2018-04-08T17:23:06.115Z,39.51
2018-04-08T17:25:33.635Z,39.83
2018-04-08T17:28:01.179Z,39.68
2018-04-08T17:30:28.683Z,40.74
2018-04-08T17:32:56.173Z,40.47
2018-04-08T17:35:23.684Z,40.87
2018-04-08T17:37:51.186Z,41.90
2018-04-08T17:40:18.679Z,44.19
2018-04-08T17:42:46.189Z,45.75
2018-04-08T17:45:13.760Z,47.91
2018-04-08T17:47:41.293Z,49.20
2018-04-08T17:50:08.812Z,50.44
2018-04-08T17:52:36.312Z,48.91
2018-04-08T17:55:03.816Z,48.66
2018-04-08T17:57:31.293Z,46.45
2018-04-08T17:59:58.804Z,45.54
2018-04-08T18:02:26.303Z,43.65
2018-04-08T18:04:54.040Z,43.99
2018-04-08T18:07:21.660Z,43.92
2018-04-08T18:09:49.266Z,43.79
2018-04-08T18:12:16.784Z,43.37
2018-04-08T18:14:44.265Z,44.00
2018-04-08T18:17:11.831Z,43.43
2018-04-08T18:19:39.377Z,43.71
2018-04-08T18:22:06.860Z,44.02
2018-04-08T18:24:34.415Z,43.92
2018-04-08T18:27:01.994Z,43.64
2018-04-08T18:29:29.489Z,44.38
2018-04-08T18:31:56.996Z,44.01
2018-04-08T18:34:24.493Z,43.89
2018-04-08T18:36:52.007Z,43.49
2018-04-08T18:39:19.501Z,43.60
2018-04-08T18:41:47.267Z,44.40
2018-04-08T18:44:14.763Z,44.66
2018-04-08T18:46:42.283Z,43.80
2018-04-08T18:49:09.795Z,44.32
2018-04-08T18:51:37.278Z,45.33
2018-04-08T18:54:04.786Z,48.68
2018-04-08T18:56:32.337Z,50.31
2018-04-08T18:58:59.836Z,50.84
2018-04-08T19:01:27.360Z,50.75
2018-04-08T19:03:54.878Z,50.43
2018-04-08T19:06:22.383Z,49.83
2018-04-08T19:08:49.920Z,51.03
2018-04-08T19:11:17.464Z,52.16
2018-04-08T19:13:44.954Z,52.72
2018-04-08T19:16:12.447Z,53.20
2018-04-08T19:18:40.258Z,53.58
2018-04-08T19:21:07.817Z,54.66
2018-04-08T19:23:35.304Z,56.15
2018-04-08T19:26:03.239Z,54.41
2018-04-08T19:28:30.756Z,54.06
2018-04-08T19:30:58.682Z,55.71
2018-04-08T19:33:26.172Z,52.96
2018-04-08T19:35:54.077Z,51.95
2018-04-08T19:38:21.579Z,49.89
2018-04-08T19:40:49.098Z,49.31
2018-04-08T19:43:16.584Z,49.82
2018-04-08T19:45:44.156Z,49.94
2018-04-08T19:48:11.720Z,49.83
2018-04-08T19:50:39.218Z,49.94
2018-04-08T19:53:06.760Z,50.08
2018-04-08T19:55:34.227Z,49.71
2018-04-08T19:58:01.749Z,49.84
2018-04-08T20:00:37.256Z,50.37
2018-04-08T20:03:04.763Z,50.33
2018-04-08T20:05:32.303Z,49.91
2018-04-08T20:07:59.832Z,49.86
2018-04-08T20:10:27.360Z,49.60
2018-04-08T20:12:54.936Z,49.29
2018-04-08T20:15:23.276Z,48.36
2018-04-08T20:17:50.786Z,49.68
2018-04-08T20:20:18.254Z,49.76
2018-04-08T20:22:45.756Z,49.50
2018-04-08T20:25:13.234Z,50.52
2018-04-08T20:27:40.806Z,52.10
2018-04-08T20:30:08.291Z,55.76
2018-04-08T20:32:35.896Z,57.53
2018-04-08T20:35:03.412Z,59.26
2018-04-08T20:37:30.919Z,59.46
2018-04-08T20:39:58.488Z,59.53
2018-04-08T20:42:26.015Z,59.76
2018-04-08T20:44:53.485Z,60.04
2018-04-08T20:47:20.987Z,60.48
2018-04-08T20:49:48.460Z,60.52
2018-04-08T20:52:15.983Z,59.18
2018-04-08T20:54:43.474Z,58.34
2018-04-08T20:57:10.979Z,58.46
2018-04-08T20:59:38.547Z,58.24
2018-04-08T21:02:06.071Z,58.20
2018-04-08T21:04:33.677Z,59.05
2018-04-08T21:07:01.175Z,60.08
2018-04-08T21:09:28.643Z,61.75
2018-04-08T21:11:56.159Z,61.09
2018-04-08T21:14:24.024Z,60.23
2018-04-08T21:16:51.539Z,60.44
2018-04-08T21:19:19.097Z,59.20
2018-04-08T21:21:46.589Z,58.98
2018-04-08T21:24:14.106Z,59.00
2018-04-08T21:26:42.019Z,59.66
2018-04-08T21:29:09.584Z,59.58
2018-04-08T21:31:37.108Z,60.71
2018-04-08T21:34:04.674Z,59.72
2018-04-08T21:36:32.251Z,60.90
2018-04-08T21:38:59.820Z,62.16
2018-04-08T21:41:27.363Z,64.11
2018-04-08T21:43:54.986Z,64.50
2018-04-08T21:46:22.533Z,64.84
2018-04-08T21:48:50.055Z,65.71
2018-04-08T21:51:17.531Z,66.09
2018-04-08T21:53:45.015Z,66.68
2018-04-08T21:56:12.571Z,67.10
2018-04-08T21:58:40.080Z,66.72
2018-04-08T22:01:07.599Z,66.89
2018-04-08T22:03:35.122Z,67.03
2018-04-08T22:06:02.666Z,67.70
2018-04-08T22:08:30.195Z,67.20
2018-04-08T22:13:50.764Z,67.27
2018-04-08T22:16:18.233Z,66.11
2018-04-08T22:18:45.812Z,65.78
2018-04-08T22:21:13.328Z,64.89
2018-04-08T22:23:40.847Z,64.11
2018-04-08T22:26:08.378Z,64.30
2018-04-08T22:28:35.955Z,66.50
2018-04-08T22:31:03.487Z,66.07
2018-04-08T22:33:30.985Z,67.20
2018-04-08T22:35:58.564Z,67.87
2018-04-08T22:38:26.088Z,67.38
2018-04-08T22:40:53.559Z,67.70
2018-04-08T22:43:21.068Z,67.95
2018-04-08T22:45:48.571Z,69.27
2018-04-08T22:48:16.134Z,69.57
2018-04-08T22:50:43.648Z,69.87
2018-04-08T22:53:11.222Z,70.23
2018-04-08T22:55:38.724Z,69.82
2018-04-08T22:58:06.256Z,69.87
2018-04-08T23:00:33.742Z,70.06
2018-04-08T23:03:01.275Z,71.35
2018-04-08T23:05:28.856Z,71.20
2018-04-08T23:07:56.414Z,71.58
2018-04-08T23:10:23.988Z,71.26
2018-04-08T23:12:51.483Z,71.05
2018-04-08T23:15:19.037Z,71.34
2018-04-08T23:17:46.618Z,71.15
2018-04-08T23:20:14.176Z,69.06
2018-04-08T23:22:41.704Z,70.21
2018-04-08T23:25:09.203Z,70.68
2018-04-08T23:27:36.765Z,70.29
2018-04-08T23:30:04.268Z,69.89
2018-04-08T23:32:31.743Z,70.56
2018-04-08T23:34:59.319Z,71.44
2018-04-08T23:37:26.887Z,71.79
2018-04-08T23:39:54.445Z,72.38
2018-04-08T23:42:22.007Z,73.38
2018-04-08T23:44:49.567Z,73.10
2018-04-08T23:47:17.124Z,73.90
2018-04-08T23:49:44.683Z,74.98
2018-04-08T23:52:12.186Z,75.83
2018-04-08T23:54:39.701Z,76.05
2018-04-08T23:57:07.222Z,75.20
2018-04-08T23:59:34.724Z,75.01
